Terminal Aerodrome Forecast
Issued by NWS

Home | Current Version | Previous Version | Text Only | Print | Product List | Glossary On
Versions: 1 2 3 4 5 6 7 8 9 10 11 12 13 14 15 16 17 18 19 20 21 22 23 24 25 26 27 28
173
FTUS45 KREV 240908 AAA
TAFRNO
TAF AMD
KRNO 240908Z 2409/2506 VRB03KT P6SM VCTS BKN120CB
     FM241200 VRB03KT P6SM SCT120
     FM242100 19008KT P6SM VCSH SCT150 SCT200
     FM250000 29010G20KT P6SM SCT100 BKN200=

USA.gov is the U.S. government's official web portal to all federal, state and local government web resources and services.